Huvudsida
METAR-TAF:

METAR-TAF

Flygplatser :

Hans Christian Andersens flygplats

Odense, Danmark

latitud: 55-29N, longitud: 010-20E, höjd: 17 m

Aktuellt väderrapport

Denna rapport gjordes för 35 minuter sedan, klockan 15:50 UTC
Vind 7 kt från syd/sydost
Temperatur 3°C
Fuktighet 93%
Tryck 1012 hPa
Sikt: 7000 m
Brutna moln på en höjd av 800 ft
Mulet på en höjd av 1000 ft
lätt regn

METAR: EKOD 191550Z 15007KT 7000 -RA BKN008 OVC010 03/02 Q1012

Tid: 17:25 (16:25 UTC)

Väderprognos

Denna rapport gjordes för 4 timmar och 32 minuter sedan, klockan 11:53 UTC
Prognos gäller från 19 kl. 12 UTC till 19 kl. 17 UTC
Vind 10 kt från syd/sydost
Sikt: 9000 m
Spridda moln på en höjd av 1200 ft
lätt regn
Blir
från 19 kl. 14 UTC till 19 kl. 16 UTC
Sikt: 4000 m
Brutna moln på en höjd av 800 ft
lätt duggregn, fuktdis

TAF: EKOD 191153Z 1912/1917 15010KT 9000 -RA SCT012 BECMG 1914/1916 4000 -DZ BR BKN008

Aktuella väderrapporter och prognoser från 4000 flygplatser (METAR- och TAF-rapporter).

De tillgängliga stationerna syns som gula och röda prickar på kartan.

För musen över prickarna för att se namnen på stationerna.

Klicka sedan för att få väderrapporter och prognoser.

För att ändra kartan: Klicka på de gröna knapparna med ett svart kors på för att zooma in; den gröna knappen med ett streck på för att zooma ut; eller på de gröna pilarna för angränsande kartor.


METAR-TAF: